sensor_id;sensor_type;location;lat;lon;timestamp;P1;durP1;ratioP1;P2;durP2;ratioP2
60372;SDS011;46216;52.220;5.134;2023-03-18T00:00:50;14.30;;;11.95;;
60372;SDS011;46216;52.220;5.134;2023-03-18T00:03:17;15.95;;;12.73;;
60372;SDS011;46216;52.220;5.134;2023-03-18T00:05:42;16.75;;;12.65;;
60372;SDS011;46216;52.220;5.134;2023-03-18T00:08:07;15.30;;;12.05;;
60372;SDS011;46216;52.220;5.134;2023-03-18T00:10:33;16.83;;;12.82;;
60372;SDS011;46216;52.220;5.134;2023-03-18T00:12:59;17.95;;;13.20;;
60372;SDS011;46216;52.220;5.134;2023-03-18T00:15:25;16.15;;;12.38;;
60372;SDS011;46216;52.220;5.134;2023-03-18T00:17:52;16.02;;;12.85;;
60372;SDS011;46216;52.220;5.134;2023-03-18T00:20:18;16.95;;;13.38;;
60372;SDS011;46216;52.220;5.134;2023-03-18T00:22:52;15.68;;;13.13;;
60372;SDS011;46216;52.220;5.134;2023-03-18T00:25:19;17.08;;;13.00;;
60372;SDS011;46216;52.220;5.134;2023-03-18T00:27:45;18.25;;;12.90;;
60372;SDS011;46216;52.220;5.134;2023-03-18T00:30:11;17.13;;;13.45;;
60372;SDS011;46216;52.220;5.134;2023-03-18T00:32:37;18.58;;;13.68;;
60372;SDS011;46216;52.220;5.134;2023-03-18T00:35:02;17.35;;;14.00;;
60372;SDS011;46216;52.220;5.134;2023-03-18T00:37:29;18.73;;;13.90;;
60372;SDS011;46216;52.220;5.134;2023-03-18T00:39:58;22.15;;;13.90;;
60372;SDS011;46216;52.220;5.134;2023-03-18T00:42:30;19.95;;;14.57;;
60372;SDS011;46216;52.220;5.134;2023-03-18T00:45:03;19.55;;;13.98;;
60372;SDS011;46216;52.220;5.134;2023-03-18T00:47:30;19.40;;;14.27;;
60372;SDS011;46216;52.220;5.134;2023-03-18T00:49:56;18.08;;;14.68;;
60372;SDS011;46216;52.220;5.134;2023-03-18T00:52:21;19.98;;;14.80;;
60372;SDS011;46216;52.220;5.134;2023-03-18T00:54:47;17.83;;;14.10;;
60372;SDS011;46216;52.220;5.134;2023-03-18T00:57:14;17.67;;;14.48;;
60372;SDS011;46216;52.220;5.134;2023-03-18T00:59:39;18.40;;;14.55;;
60372;SDS011;46216;52.220;5.134;2023-03-18T01:02:05;17.15;;;13.98;;
60372;SDS011;46216;52.220;5.134;2023-03-18T01:04:30;19.75;;;14.27;;
60372;SDS011;46216;52.220;5.134;2023-03-18T01:06:56;17.65;;;14.27;;
60372;SDS011;46216;52.220;5.134;2023-03-18T01:09:22;17.33;;;14.32;;
60372;SDS011;46216;52.220;5.134;2023-03-18T01:11:48;21.30;;;15.18;;
60372;SDS011;46216;52.220;5.134;2023-03-18T01:14:14;17.60;;;14.15;;
60372;SDS011;46216;52.220;5.134;2023-03-18T01:16:40;17.33;;;13.52;;
60372;SDS011;46216;52.220;5.134;2023-03-18T01:19:05;17.08;;;14.23;;
60372;SDS011;46216;52.220;5.134;2023-03-18T01:21:30;20.00;;;14.80;;
60372;SDS011;46216;52.220;5.134;2023-03-18T01:23:56;22.80;;;14.30;;
60372;SDS011;46216;52.220;5.134;2023-03-18T01:26:24;17.67;;;14.30;;
60372;SDS011;46216;52.220;5.134;2023-03-18T01:28:50;18.17;;;14.27;;
60372;SDS011;46216;52.220;5.134;2023-03-18T01:31:16;19.10;;;14.65;;
60372;SDS011;46216;52.220;5.134;2023-03-18T01:33:42;19.33;;;14.88;;
60372;SDS011;46216;52.220;5.134;2023-03-18T01:36:09;18.65;;;14.70;;
60372;SDS011;46216;52.220;5.134;2023-03-18T01:38:35;18.17;;;14.60;;
60372;SDS011;46216;52.220;5.134;2023-03-18T01:41:02;17.50;;;14.52;;
60372;SDS011;46216;52.220;5.134;2023-03-18T01:43:32;18.67;;;14.98;;
60372;SDS011;46216;52.220;5.134;2023-03-18T01:46:00;20.40;;;15.05;;
60372;SDS011;46216;52.220;5.134;2023-03-18T01:48:46;21.27;;;15.05;;
60372;SDS011;46216;52.220;5.134;2023-03-18T01:51:12;17.80;;;14.55;;
60372;SDS011;46216;52.220;5.134;2023-03-18T01:53:39;17.13;;;14.80;;
60372;SDS011;46216;52.220;5.134;2023-03-18T01:56:11;19.58;;;14.98;;
60372;SDS011;46216;52.220;5.134;2023-03-18T01:58:40;18.60;;;14.80;;
60372;SDS011;46216;52.220;5.134;2023-03-18T02:03:52;19.80;;;15.15;;
60372;SDS011;46216;52.220;5.134;2023-03-18T02:06:19;17.42;;;14.60;;
60372;SDS011;46216;52.220;5.134;2023-03-18T02:08:45;18.65;;;13.98;;
60372;SDS011;46216;52.220;5.134;2023-03-18T02:11:10;20.13;;;15.35;;
60372;SDS011;46216;52.220;5.134;2023-03-18T02:13:38;19.70;;;14.77;;
60372;SDS011;46216;52.220;5.134;2023-03-18T02:16:14;18.55;;;14.23;;
60372;SDS011;46216;52.220;5.134;2023-03-18T02:18:47;17.30;;;14.30;;
60372;SDS011;46216;52.220;5.134;2023-03-18T02:23:58;19.80;;;15.15;;
60372;SDS011;46216;52.220;5.134;2023-03-18T02:29:17;20.45;;;14.93;;
60372;SDS011;46216;52.220;5.134;2023-03-18T02:31:45;19.67;;;15.43;;
60372;SDS011;46216;52.220;5.134;2023-03-18T02:34:12;20.50;;;16.25;;
60372;SDS011;46216;52.220;5.134;2023-03-18T02:36:39;22.13;;;15.63;;
60372;SDS011;46216;52.220;5.134;2023-03-18T02:39:05;20.80;;;15.25;;
60372;SDS011;46216;52.220;5.134;2023-03-18T02:41:32;19.05;;;15.75;;
60372;SDS011;46216;52.220;5.134;2023-03-18T02:43:59;20.73;;;15.57;;
60372;SDS011;46216;52.220;5.134;2023-03-18T02:49:13;19.85;;;16.23;;
60372;SDS011;46216;52.220;5.134;2023-03-18T02:51:39;24.60;;;15.52;;
60372;SDS011;46216;52.220;5.134;2023-03-18T02:54:10;19.63;;;15.35;;
60372;SDS011;46216;52.220;5.134;2023-03-18T02:56:38;21.88;;;15.00;;
60372;SDS011;46216;52.220;5.134;2023-03-18T02:59:05;19.00;;;15.50;;
60372;SDS011;46216;52.220;5.134;2023-03-18T03:01:32;19.58;;;15.20;;
60372;SDS011;46216;52.220;5.134;2023-03-18T03:03:57;21.25;;;15.57;;
60372;SDS011;46216;52.220;5.134;2023-03-18T03:06:23;19.80;;;15.70;;
60372;SDS011;46216;52.220;5.134;2023-03-18T03:08:49;18.67;;;15.73;;
60372;SDS011;46216;52.220;5.134;2023-03-18T03:11:15;21.75;;;16.10;;
60372;SDS011;46216;52.220;5.134;2023-03-18T03:13:41;18.20;;;16.00;;
60372;SDS011;46216;52.220;5.134;2023-03-18T03:16:09;21.52;;;15.85;;
60372;SDS011;46216;52.220;5.134;2023-03-18T03:18:34;20.73;;;16.30;;
60372;SDS011;46216;52.220;5.134;2023-03-18T03:21:00;22.67;;;16.70;;
60372;SDS011;46216;52.220;5.134;2023-03-18T03:23:26;23.23;;;16.92;;
60372;SDS011;46216;52.220;5.134;2023-03-18T03:25:51;23.23;;;17.00;;
60372;SDS011;46216;52.220;5.134;2023-03-18T03:28:17;19.60;;;16.08;;
60372;SDS011;46216;52.220;5.134;2023-03-18T03:30:42;20.75;;;17.20;;
60372;SDS011;46216;52.220;5.134;2023-03-18T03:33:08;20.48;;;17.00;;
60372;SDS011;46216;52.220;5.134;2023-03-18T03:35:34;23.88;;;17.55;;
60372;SDS011;46216;52.220;5.134;2023-03-18T03:38:00;22.27;;;17.52;;
60372;SDS011;46216;52.220;5.134;2023-03-18T03:40:26;24.25;;;18.42;;
60372;SDS011;46216;52.220;5.134;2023-03-18T03:42:51;22.85;;;17.40;;
60372;SDS011;46216;52.220;5.134;2023-03-18T03:45:17;23.60;;;17.45;;
60372;SDS011;46216;52.220;5.134;2023-03-18T03:47:43;21.30;;;18.50;;
60372;SDS011;46216;52.220;5.134;2023-03-18T03:50:10;22.02;;;17.63;;
60372;SDS011;46216;52.220;5.134;2023-03-18T03:52:37;25.55;;;18.15;;
60372;SDS011;46216;52.220;5.134;2023-03-18T03:55:04;22.20;;;17.42;;
60372;SDS011;46216;52.220;5.134;2023-03-18T03:57:31;25.02;;;17.95;;
60372;SDS011;46216;52.220;5.134;2023-03-18T03:59:57;19.33;;;17.25;;
60372;SDS011;46216;52.220;5.134;2023-03-18T04:02:22;23.80;;;18.13;;
60372;SDS011;46216;52.220;5.134;2023-03-18T04:04:49;22.95;;;18.38;;
60372;SDS011;46216;52.220;5.134;2023-03-18T04:07:14;23.35;;;17.98;;
60372;SDS011;46216;52.220;5.134;2023-03-18T04:09:40;23.52;;;18.35;;
60372;SDS011;46216;52.220;5.134;2023-03-18T04:12:06;22.27;;;18.33;;
60372;SDS011;46216;52.220;5.134;2023-03-18T04:14:32;23.85;;;18.52;;
60372;SDS011;46216;52.220;5.134;2023-03-18T04:16:58;25.77;;;18.33;;
60372;SDS011;46216;52.220;5.134;2023-03-18T04:19:25;23.92;;;18.27;;
60372;SDS011;46216;52.220;5.134;2023-03-18T04:21:52;24.58;;;18.83;;
60372;SDS011;46216;52.220;5.134;2023-03-18T04:24:18;22.65;;;18.55;;
60372;SDS011;46216;52.220;5.134;2023-03-18T04:26:44;21.35;;;18.33;;
60372;SDS011;46216;52.220;5.134;2023-03-18T04:29:10;22.02;;;18.40;;
60372;SDS011;46216;52.220;5.134;2023-03-18T04:31:35;25.10;;;18.58;;
60372;SDS011;46216;52.220;5.134;2023-03-18T04:34:01;24.15;;;18.25;;
60372;SDS011;46216;52.220;5.134;2023-03-18T04:36:26;26.05;;;17.83;;
60372;SDS011;46216;52.220;5.134;2023-03-18T04:38:52;22.67;;;17.73;;
60372;SDS011;46216;52.220;5.134;2023-03-18T04:41:18;23.63;;;17.77;;
60372;SDS011;46216;52.220;5.134;2023-03-18T04:43:44;21.75;;;17.40;;
60372;SDS011;46216;52.220;5.134;2023-03-18T04:46:09;19.55;;;17.45;;
60372;SDS011;46216;52.220;5.134;2023-03-18T04:48:36;20.23;;;16.60;;
60372;SDS011;46216;52.220;5.134;2023-03-18T04:51:03;20.80;;;16.38;;
60372;SDS011;46216;52.220;5.134;2023-03-18T04:53:29;20.80;;;16.67;;
60372;SDS011;46216;52.220;5.134;2023-03-18T04:55:55;21.35;;;16.42;;
60372;SDS011;46216;52.220;5.134;2023-03-18T04:58:20;21.17;;;17.35;;
60372;SDS011;46216;52.220;5.134;2023-03-18T05:00:47;26.15;;;17.00;;
60372;SDS011;46216;52.220;5.134;2023-03-18T05:03:12;22.00;;;17.13;;
60372;SDS011;46216;52.220;5.134;2023-03-18T05:05:38;25.55;;;17.27;;
60372;SDS011;46216;52.220;5.134;2023-03-18T05:08:03;21.80;;;16.92;;
60372;SDS011;46216;52.220;5.134;2023-03-18T05:10:29;23.58;;;17.90;;
60372;SDS011;46216;52.220;5.134;2023-03-18T05:12:55;20.70;;;17.00;;
60372;SDS011;46216;52.220;5.134;2023-03-18T05:15:20;21.90;;;17.15;;
60372;SDS011;46216;52.220;5.134;2023-03-18T05:17:46;22.10;;;17.23;;
60372;SDS011;46216;52.220;5.134;2023-03-18T05:20:11;22.92;;;16.80;;
60372;SDS011;46216;52.220;5.134;2023-03-18T05:22:37;21.80;;;17.25;;
60372;SDS011;46216;52.220;5.134;2023-03-18T05:25:04;21.27;;;17.48;;
60372;SDS011;46216;52.220;5.134;2023-03-18T05:27:30;22.17;;;16.73;;
60372;SDS011;46216;52.220;5.134;2023-03-18T05:29:56;21.55;;;17.30;;
60372;SDS011;46216;52.220;5.134;2023-03-18T05:32:21;23.40;;;17.40;;
60372;SDS011;46216;52.220;5.134;2023-03-18T05:34:47;22.48;;;17.58;;
60372;SDS011;46216;52.220;5.134;2023-03-18T05:37:12;22.75;;;18.08;;
60372;SDS011;46216;52.220;5.134;2023-03-18T05:39:39;22.92;;;18.05;;
60372;SDS011;46216;52.220;5.134;2023-03-18T05:42:06;23.15;;;18.08;;
60372;SDS011;46216;52.220;5.134;2023-03-18T05:44:32;20.23;;;17.75;;
60372;SDS011;46216;52.220;5.134;2023-03-18T05:46:58;20.75;;;17.95;;
60372;SDS011;46216;52.220;5.134;2023-03-18T05:49:23;20.42;;;16.63;;
60372;SDS011;46216;52.220;5.134;2023-03-18T05:51:49;23.40;;;17.65;;
60372;SDS011;46216;52.220;5.134;2023-03-18T05:54:15;22.83;;;17.65;;
60372;SDS011;46216;52.220;5.134;2023-03-18T05:56:41;23.85;;;17.88;;
60372;SDS011;46216;52.220;5.134;2023-03-18T05:59:10;20.52;;;16.60;;
60372;SDS011;46216;52.220;5.134;2023-03-18T06:01:36;24.52;;;18.30;;
60372;SDS011;46216;52.220;5.134;2023-03-18T06:04:03;22.70;;;17.70;;
60372;SDS011;46216;52.220;5.134;2023-03-18T06:06:30;23.02;;;18.27;;
60372;SDS011;46216;52.220;5.134;2023-03-18T06:08:56;21.02;;;17.98;;
60372;SDS011;46216;52.220;5.134;2023-03-18T06:11:22;22.70;;;17.35;;
60372;SDS011;46216;52.220;5.134;2023-03-18T06:13:48;22.00;;;17.75;;
60372;SDS011;46216;52.220;5.134;2023-03-18T06:16:14;21.35;;;17.45;;
60372;SDS011;46216;52.220;5.134;2023-03-18T06:18:40;21.90;;;17.15;;
60372;SDS011;46216;52.220;5.134;2023-03-18T06:21:07;25.67;;;18.00;;
60372;SDS011;46216;52.220;5.134;2023-03-18T06:23:34;22.42;;;16.85;;
60372;SDS011;46216;52.220;5.134;2023-03-18T06:26:00;22.05;;;17.27;;
60372;SDS011;46216;52.220;5.134;2023-03-18T06:28:26;20.15;;;17.17;;
60372;SDS011;46216;52.220;5.134;2023-03-18T06:30:55;20.30;;;17.25;;
60372;SDS011;46216;52.220;5.134;2023-03-18T06:33:21;22.45;;;17.05;;
60372;SDS011;46216;52.220;5.134;2023-03-18T06:35:48;20.33;;;17.55;;
60372;SDS011;46216;52.220;5.134;2023-03-18T06:38:14;22.38;;;16.85;;
60372;SDS011;46216;52.220;5.134;2023-03-18T06:40:41;24.25;;;18.98;;
60372;SDS011;46216;52.220;5.134;2023-03-18T06:43:07;24.45;;;19.27;;
60372;SDS011;46216;52.220;5.134;2023-03-18T06:45:33;25.00;;;18.25;;
60372;SDS011;46216;52.220;5.134;2023-03-18T06:47:59;25.10;;;18.65;;
60372;SDS011;46216;52.220;5.134;2023-03-18T06:50:25;25.30;;;18.58;;
60372;SDS011;46216;52.220;5.134;2023-03-18T06:52:51;23.35;;;18.73;;
60372;SDS011;46216;52.220;5.134;2023-03-18T06:55:16;22.20;;;18.63;;
60372;SDS011;46216;52.220;5.134;2023-03-18T06:57:42;22.65;;;17.38;;
60372;SDS011;46216;52.220;5.134;2023-03-18T07:00:09;22.67;;;18.13;;
60372;SDS011;46216;52.220;5.134;2023-03-18T07:02:34;24.73;;;19.50;;
60372;SDS011;46216;52.220;5.134;2023-03-18T07:05:00;22.83;;;18.63;;
60372;SDS011;46216;52.220;5.134;2023-03-18T07:07:26;27.42;;;20.55;;
60372;SDS011;46216;52.220;5.134;2023-03-18T07:09:52;23.85;;;19.13;;
60372;SDS011;46216;52.220;5.134;2023-03-18T07:12:17;27.08;;;19.70;;
60372;SDS011;46216;52.220;5.134;2023-03-18T07:14:43;24.63;;;19.45;;
60372;SDS011;46216;52.220;5.134;2023-03-18T07:17:09;24.55;;;20.23;;
60372;SDS011;46216;52.220;5.134;2023-03-18T07:19:34;27.50;;;20.10;;
60372;SDS011;46216;52.220;5.134;2023-03-18T07:22:00;24.85;;;18.67;;
60372;SDS011;46216;52.220;5.134;2023-03-18T07:24:26;20.70;;;17.30;;
60372;SDS011;46216;52.220;5.134;2023-03-18T07:26:53;22.13;;;17.38;;
60372;SDS011;46216;52.220;5.134;2023-03-18T07:29:18;22.73;;;17.05;;
60372;SDS011;46216;52.220;5.134;2023-03-18T07:31:44;22.40;;;17.05;;
60372;SDS011;46216;52.220;5.134;2023-03-18T07:34:11;19.92;;;17.77;;
60372;SDS011;46216;52.220;5.134;2023-03-18T07:36:37;24.35;;;17.88;;
60372;SDS011;46216;52.220;5.134;2023-03-18T07:39:05;20.88;;;18.10;;
60372;SDS011;46216;52.220;5.134;2023-03-18T07:41:31;21.10;;;17.52;;
60372;SDS011;46216;52.220;5.134;2023-03-18T07:43:57;21.52;;;16.83;;
60372;SDS011;46216;52.220;5.134;2023-03-18T07:46:22;24.55;;;18.20;;
60372;SDS011;46216;52.220;5.134;2023-03-18T07:48:48;23.48;;;17.98;;
60372;SDS011;46216;52.220;5.134;2023-03-18T07:51:14;22.48;;;18.60;;
60372;SDS011;46216;52.220;5.134;2023-03-18T07:53:40;21.27;;;18.20;;
60372;SDS011;46216;52.220;5.134;2023-03-18T07:56:07;28.17;;;20.17;;
60372;SDS011;46216;52.220;5.134;2023-03-18T07:58:34;23.90;;;19.23;;
60372;SDS011;46216;52.220;5.134;2023-03-18T08:00:59;21.98;;;17.80;;
60372;SDS011;46216;52.220;5.134;2023-03-18T08:03:25;23.73;;;17.95;;
60372;SDS011;46216;52.220;5.134;2023-03-18T08:05:50;19.73;;;17.38;;
60372;SDS011;46216;52.220;5.134;2023-03-18T08:08:16;20.65;;;17.33;;
60372;SDS011;46216;52.220;5.134;2023-03-18T08:10:42;21.75;;;16.23;;
60372;SDS011;46216;52.220;5.134;2023-03-18T08:13:07;22.65;;;17.38;;
60372;SDS011;46216;52.220;5.134;2023-03-18T08:15:33;22.50;;;16.45;;
60372;SDS011;46216;52.220;5.134;2023-03-18T08:17:58;19.27;;;17.20;;
60372;SDS011;46216;52.220;5.134;2023-03-18T08:20:23;18.90;;;16.88;;
60372;SDS011;46216;52.220;5.134;2023-03-18T08:22:49;21.30;;;17.33;;
60372;SDS011;46216;52.220;5.134;2023-03-18T08:25:17;20.65;;;17.38;;
60372;SDS011;46216;52.220;5.134;2023-03-18T08:27:42;23.42;;;17.77;;
60372;SDS011;46216;52.220;5.134;2023-03-18T08:30:08;21.90;;;16.92;;
60372;SDS011;46216;52.220;5.134;2023-03-18T08:32:34;20.02;;;17.55;;
60372;SDS011;46216;52.220;5.134;2023-03-18T08:35:00;19.83;;;17.52;;
60372;SDS011;46216;52.220;5.134;2023-03-18T08:37:26;21.05;;;17.05;;
60372;SDS011;46216;52.220;5.134;2023-03-18T08:39:52;22.27;;;16.92;;
60372;SDS011;46216;52.220;5.134;2023-03-18T08:42:18;18.13;;;16.15;;
60372;SDS011;46216;52.220;5.134;2023-03-18T08:44:44;20.42;;;16.52;;
60372;SDS011;46216;52.220;5.134;2023-03-18T08:47:09;18.75;;;15.90;;
60372;SDS011;46216;52.220;5.134;2023-03-18T08:49:35;20.00;;;14.95;;
60372;SDS011;46216;52.220;5.134;2023-03-18T08:52:01;17.23;;;14.25;;
60372;SDS011;46216;52.220;5.134;2023-03-18T08:54:27;14.98;;;13.07;;
60372;SDS011;46216;52.220;5.134;2023-03-18T08:56:52;15.07;;;13.35;;
60372;SDS011;46216;52.220;5.134;2023-03-18T08:59:19;15.38;;;13.65;;
60372;SDS011;46216;52.220;5.134;2023-03-18T09:01:45;17.25;;;13.13;;
60372;SDS011;46216;52.220;5.134;2023-03-18T09:04:12;16.08;;;13.52;;
60372;SDS011;46216;52.220;5.134;2023-03-18T09:06:38;15.18;;;13.38;;
60372;SDS011;46216;52.220;5.134;2023-03-18T09:09:05;15.73;;;13.25;;
60372;SDS011;46216;52.220;5.134;2023-03-18T09:11:30;14.88;;;12.95;;
60372;SDS011;46216;52.220;5.134;2023-03-18T09:13:56;14.98;;;11.43;;
60372;SDS011;46216;52.220;5.134;2023-03-18T09:16:21;15.20;;;12.55;;
60372;SDS011;46216;52.220;5.134;2023-03-18T09:18:46;16.10;;;11.40;;
60372;SDS011;46216;52.220;5.134;2023-03-18T09:21:12;13.63;;;11.13;;
60372;SDS011;46216;52.220;5.134;2023-03-18T09:23:38;14.82;;;12.20;;
60372;SDS011;46216;52.220;5.134;2023-03-18T09:26:03;14.50;;;12.27;;
60372;SDS011;46216;52.220;5.134;2023-03-18T09:28:29;16.95;;;12.90;;
60372;SDS011;46216;52.220;5.134;2023-03-18T09:30:55;13.98;;;11.65;;
60372;SDS011;46216;52.220;5.134;2023-03-18T09:33:21;13.30;;;11.90;;
60372;SDS011;46216;52.220;5.134;2023-03-18T09:35:46;15.73;;;12.07;;
60372;SDS011;46216;52.220;5.134;2023-03-18T09:38:16;13.82;;;12.27;;
60372;SDS011;46216;52.220;5.134;2023-03-18T09:40:54;13.77;;;10.98;;
60372;SDS011;46216;52.220;5.134;2023-03-18T09:44:01;13.30;;;11.55;;
60372;SDS011;46216;52.220;5.134;2023-03-18T09:49:41;13.45;;;10.13;;
60372;SDS011;46216;52.220;5.134;2023-03-18T09:52:36;13.98;;;10.90;;
60372;SDS011;46216;52.220;5.134;2023-03-18T09:55:32;13.02;;;11.20;;
60372;SDS011;46216;52.220;5.134;2023-03-18T09:58:04;13.40;;;11.07;;
60372;SDS011;46216;52.220;5.134;2023-03-18T10:00:39;14.80;;;12.52;;
60372;SDS011;46216;52.220;5.134;2023-03-18T10:03:26;15.45;;;13.82;;
60372;SDS011;46216;52.220;5.134;2023-03-18T10:06:15;14.43;;;12.93;;
60372;SDS011;46216;52.220;5.134;2023-03-18T10:08:51;15.73;;;13.90;;
60372;SDS011;46216;52.220;5.134;2023-03-18T10:16:49;16.42;;;13.18;;
60372;SDS011;46216;52.220;5.134;2023-03-18T10:19:16;14.10;;;11.68;;
60372;SDS011;46216;52.220;5.134;2023-03-18T10:22:28;14.15;;;12.02;;
60372;SDS011;46216;52.220;5.134;2023-03-18T10:27:38;12.38;;;9.82;;
60372;SDS011;46216;52.220;5.134;2023-03-18T10:35:46;13.18;;;11.68;;
60372;SDS011;46216;52.220;5.134;2023-03-18T10:38:22;14.07;;;12.57;;
60372;SDS011;46216;52.220;5.134;2023-03-18T10:40:51;16.00;;;12.57;;
60372;SDS011;46216;52.220;5.134;2023-03-18T10:43:28;13.93;;;12.40;;
60372;SDS011;46216;52.220;5.134;2023-03-18T10:45:58;13.93;;;11.85;;
60372;SDS011;46216;52.220;5.134;2023-03-18T10:48:27;14.30;;;12.90;;
60372;SDS011;46216;52.220;5.134;2023-03-18T10:51:04;14.20;;;10.90;;
60372;SDS011;46216;52.220;5.134;2023-03-18T10:56:21;11.85;;;9.77;;
60372;SDS011;46216;52.220;5.134;2023-03-18T10:58:46;12.68;;;9.90;;
60372;SDS011;46216;52.220;5.134;2023-03-18T11:01:13;12.15;;;10.60;;
60372;SDS011;46216;52.220;5.134;2023-03-18T11:03:59;10.23;;;9.13;;
60372;SDS011;46216;52.220;5.134;2023-03-18T11:06:35;12.10;;;8.70;;
60372;SDS011;46216;52.220;5.134;2023-03-18T11:09:09;8.90;;;7.03;;
60372;SDS011;46216;52.220;5.134;2023-03-18T11:11:41;10.30;;;6.78;;
60372;SDS011;46216;52.220;5.134;2023-03-18T11:14:12;9.02;;;7.55;;
60372;SDS011;46216;52.220;5.134;2023-03-18T11:16:45;13.05;;;7.88;;
60372;SDS011;46216;52.220;5.134;2023-03-18T11:19:28;9.43;;;7.18;;
60372;SDS011;46216;52.220;5.134;2023-03-18T11:22:03;9.15;;;7.63;;
60372;SDS011;46216;52.220;5.134;2023-03-18T11:27:58;11.68;;;7.97;;
60372;SDS011;46216;52.220;5.134;2023-03-18T11:30:28;12.18;;;7.32;;
60372;SDS011;46216;52.220;5.134;2023-03-18T11:33:11;9.52;;;7.40;;
60372;SDS011;46216;52.220;5.134;2023-03-18T11:35:41;10.93;;;7.28;;
60372;SDS011;46216;52.220;5.134;2023-03-18T11:38:15;10.55;;;7.65;;
60372;SDS011;46216;52.220;5.134;2023-03-18T11:40:43;10.10;;;7.68;;
60372;SDS011;46216;52.220;5.134;2023-03-18T11:43:14;11.30;;;8.02;;
60372;SDS011;46216;52.220;5.134;2023-03-18T11:48:13;10.05;;;9.05;;
60372;SDS011;46216;52.220;5.134;2023-03-18T11:51:05;11.68;;;8.75;;
60372;SDS011;46216;52.220;5.134;2023-03-18T11:59:07;12.18;;;9.32;;
60372;SDS011;46216;52.220;5.134;2023-03-18T12:01:48;9.60;;;7.82;;
60372;SDS011;46216;52.220;5.134;2023-03-18T12:21:34;10.95;;;6.65;;
60372;SDS011;46216;52.220;5.134;2023-03-18T12:26:43;9.15;;;5.82;;
60372;SDS011;46216;52.220;5.134;2023-03-18T12:37:48;7.50;;;4.18;;
60372;SDS011;46216;52.220;5.134;2023-03-18T12:44:11;7.60;;;4.47;;
60372;SDS011;46216;52.220;5.134;2023-03-18T12:46:45;8.43;;;4.72;;
60372;SDS011;46216;52.220;5.134;2023-03-18T12:49:28;7.85;;;4.78;;
60372;SDS011;46216;52.220;5.134;2023-03-18T12:52:18;7.43;;;4.70;;
60372;SDS011;46216;52.220;5.134;2023-03-18T12:54:56;8.20;;;5.20;;
60372;SDS011;46216;52.220;5.134;2023-03-18T12:57:39;7.93;;;5.20;;
60372;SDS011;46216;52.220;5.134;2023-03-18T13:03:34;7.70;;;4.80;;
60372;SDS011;46216;52.220;5.134;2023-03-18T13:06:08;8.82;;;5.65;;
60372;SDS011;46216;52.220;5.134;2023-03-18T13:14:23;7.95;;;4.57;;
60372;SDS011;46216;52.220;5.134;2023-03-18T13:17:15;7.38;;;4.18;;
60372;SDS011;46216;52.220;5.134;2023-03-18T13:19:55;8.07;;;4.30;;
60372;SDS011;46216;52.220;5.134;2023-03-18T13:22:50;6.75;;;3.88;;
60372;SDS011;46216;52.220;5.134;2023-03-18T13:31:05;6.45;;;3.80;;
60372;SDS011;46216;52.220;5.134;2023-03-18T13:44:30;6.97;;;3.47;;
60372;SDS011;46216;52.220;5.134;2023-03-18T13:46:59;7.45;;;3.78;;
60372;SDS011;46216;52.220;5.134;2023-03-18T13:49:29;4.90;;;3.20;;
60372;SDS011;46216;52.220;5.134;2023-03-18T13:52:00;6.57;;;3.15;;
60372;SDS011;46216;52.220;5.134;2023-03-18T13:54:34;6.15;;;2.85;;
60372;SDS011;46216;52.220;5.134;2023-03-18T13:57:30;3.97;;;2.80;;
60372;SDS011;46216;52.220;5.134;2023-03-18T14:03:05;6.25;;;3.08;;
60372;SDS011;46216;52.220;5.134;2023-03-18T14:05:43;5.47;;;3.10;;
60372;SDS011;46216;52.220;5.134;2023-03-18T14:13:50;5.63;;;3.25;;
60372;SDS011;46216;52.220;5.134;2023-03-18T14:16:20;7.40;;;3.83;;
60372;SDS011;46216;52.220;5.134;2023-03-18T14:18:54;5.30;;;3.50;;
60372;SDS011;46216;52.220;5.134;2023-03-18T14:21:26;5.63;;;3.40;;
60372;SDS011;46216;52.220;5.134;2023-03-18T14:24:10;5.47;;;3.50;;
60372;SDS011;46216;52.220;5.134;2023-03-18T14:32:01;8.48;;;3.92;;
60372;SDS011;46216;52.220;5.134;2023-03-18T14:34:33;6.80;;;3.50;;
60372;SDS011;46216;52.220;5.134;2023-03-18T14:39:40;5.30;;;3.28;;
60372;SDS011;46216;52.220;5.134;2023-03-18T14:42:26;9.05;;;3.33;;
60372;SDS011;46216;52.220;5.134;2023-03-18T14:44:59;7.55;;;3.47;;
60372;SDS011;46216;52.220;5.134;2023-03-18T14:47:49;4.55;;;3.30;;
60372;SDS011;46216;52.220;5.134;2023-03-18T14:50:39;5.35;;;3.22;;
60372;SDS011;46216;52.220;5.134;2023-03-18T14:53:49;7.03;;;3.00;;
60372;SDS011;46216;52.220;5.134;2023-03-18T14:56:02;4.45;;;2.30;;
60372;SDS011;46216;52.220;5.134;2023-03-18T14:58:28;4.85;;;2.45;;
60372;SDS011;46216;52.220;5.134;2023-03-18T15:00:55;5.45;;;2.47;;
60372;SDS011;46216;52.220;5.134;2023-03-18T15:03:25;5.20;;;2.10;;
60372;SDS011;46216;52.220;5.134;2023-03-18T15:05:59;5.05;;;1.95;;
60372;SDS011;46216;52.220;5.134;2023-03-18T15:08:28;3.67;;;2.00;;
60372;SDS011;46216;52.220;5.134;2023-03-18T15:10:55;3.53;;;1.88;;
60372;SDS011;46216;52.220;5.134;2023-03-18T15:13:22;3.58;;;1.40;;
60372;SDS011;46216;52.220;5.134;2023-03-18T15:15:51;4.50;;;2.00;;
60372;SDS011;46216;52.220;5.134;2023-03-18T15:21:02;3.55;;;1.65;;
60372;SDS011;46216;52.220;5.134;2023-03-18T15:23:45;6.70;;;1.52;;
60372;SDS011;46216;52.220;5.134;2023-03-18T15:26:18;3.33;;;1.48;;
60372;SDS011;46216;52.220;5.134;2023-03-18T15:28:47;4.07;;;1.58;;
60372;SDS011;46216;52.220;5.134;2023-03-18T15:31:22;4.30;;;1.50;;
60372;SDS011;46216;52.220;5.134;2023-03-18T15:36:51;2.33;;;1.50;;
60372;SDS011;46216;52.220;5.134;2023-03-18T15:39:37;4.25;;;1.85;;
60372;SDS011;46216;52.220;5.134;2023-03-18T15:42:24;3.00;;;1.67;;
60372;SDS011;46216;52.220;5.134;2023-03-18T15:44:56;4.15;;;1.80;;
60372;SDS011;46216;52.220;5.134;2023-03-18T15:47:26;4.70;;;2.25;;
60372;SDS011;46216;52.220;5.134;2023-03-18T15:49:58;3.22;;;2.03;;
60372;SDS011;46216;52.220;5.134;2023-03-18T15:52:26;3.47;;;2.35;;
60372;SDS011;46216;52.220;5.134;2023-03-18T15:54:58;2.90;;;2.20;;
60372;SDS011;46216;52.220;5.134;2023-03-18T15:59:58;3.25;;;2.40;;
60372;SDS011;46216;52.220;5.134;2023-03-18T16:02:25;3.80;;;2.92;;
60372;SDS011;46216;52.220;5.134;2023-03-18T16:05:03;4.05;;;2.80;;
60372;SDS011;46216;52.220;5.134;2023-03-18T16:07:29;4.13;;;2.95;;
60372;SDS011;46216;52.220;5.134;2023-03-18T16:09:55;6.57;;;2.83;;
60372;SDS011;46216;52.220;5.134;2023-03-18T16:12:21;3.65;;;2.20;;
60372;SDS011;46216;52.220;5.134;2023-03-18T16:14:49;3.95;;;1.80;;
60372;SDS011;46216;52.220;5.134;2023-03-18T16:17:16;2.88;;;2.10;;
60372;SDS011;46216;52.220;5.134;2023-03-18T16:19:44;3.53;;;1.88;;
60372;SDS011;46216;52.220;5.134;2023-03-18T16:22:11;3.47;;;2.03;;
60372;SDS011;46216;52.220;5.134;2023-03-18T16:24:38;4.38;;;2.10;;
60372;SDS011;46216;52.220;5.134;2023-03-18T16:27:05;3.47;;;2.00;;
60372;SDS011;46216;52.220;5.134;2023-03-18T16:29:38;2.90;;;1.95;;
60372;SDS011;46216;52.220;5.134;2023-03-18T16:32:04;3.55;;;2.17;;
60372;SDS011;46216;52.220;5.134;2023-03-18T16:34:30;3.63;;;2.28;;
60372;SDS011;46216;52.220;5.134;2023-03-18T16:36:56;2.85;;;1.85;;
60372;SDS011;46216;52.220;5.134;2023-03-18T16:39:22;3.90;;;2.00;;
60372;SDS011;46216;52.220;5.134;2023-03-18T16:41:49;2.63;;;2.03;;
60372;SDS011;46216;52.220;5.134;2023-03-18T16:44:17;2.88;;;2.10;;